Página principal
METAR-TAF:

METAR-TAF

Aeroportos :

Marshall, Alasca, Estados Unidos

latitude: 61-51-51N, longitude: 162-01-34W, altura: 31 m

Observação actual do tempo

O boletim foi feito há 49 minutos, às 19:56 UTC
Vento 6 kt de oes-noroeste
Temperatura 20°C
Humidade 49%
Pressão 1015 hPa
Visibilidade: 16.1 km
Céu limpo

METAR: PADM 171956Z AUTO 30006KT 10SM CLR 20/09 A2996 RMK AO2 SLP148 T02000094

Hora: 12:45 (20:45 UTC)


TAF: em falta

Observações e previsões do tempo de mais de 4000 aeroportos (mensagens METAR e TAF).

As estações disponíveis são os pontos amarelos e vermelhos sobre o mapa.

Mova o rato sobre o mapa para ver o nome da estação.

Depois clique no ponto para visualizar as observações e previsões meteorológicas.

Para alterar o mapa : clique nos botões verdes com uma cruz preta para aumentar o zoom; no botão verde com uma pitada de zoom; ou nas setas verdes para mapas adjacentes.


METAR-TAF: